createdAt,value
2019-03-30T00:04:37.987Z,35
2019-03-30T00:09:40.560Z,33
2019-03-30T00:14:43.012Z,36
2019-03-30T00:19:45.718Z,35
2019-03-30T00:24:47.841Z,37
2019-03-30T00:29:50.403Z,39
2019-03-30T00:34:52.773Z,47
2019-03-30T00:39:55.298Z,43
2019-03-30T00:44:57.829Z,44
2019-03-30T00:50:00.886Z,40
2019-03-30T00:55:02.646Z,39
2019-03-30T01:00:05.161Z,36
2019-03-30T01:05:07.560Z,41
2019-03-30T01:10:10.060Z,42
2019-03-30T01:15:12.605Z,43
2019-03-30T01:20:15.311Z,46
2019-03-30T01:25:17.418Z,50
2019-03-30T01:30:23.158Z,37
2019-03-30T01:35:22.449Z,40
2019-03-30T01:40:24.853Z,43
2019-03-30T01:45:27.346Z,44
2019-03-30T01:50:30.018Z,42
2019-03-30T01:55:32.213Z,51
2019-03-30T02:00:34.669Z,43
2019-03-30T02:05:37.105Z,45
2019-03-30T02:10:39.587Z,46
2019-03-30T02:15:42.283Z,54
2019-03-30T02:20:44.643Z,51
2019-03-30T02:25:46.971Z,48
2019-03-30T02:30:49.447Z,51
2019-03-30T02:40:54.328Z,43
2019-03-30T02:45:56.925Z,42
2019-03-30T02:50:59.635Z,52
2019-03-30T02:56:01.729Z,49
2019-03-30T03:01:04.193Z,46
2019-03-30T03:06:06.641Z,46
2019-03-30T03:11:09.157Z,47
2019-03-30T03:16:11.681Z,49
2019-03-30T03:21:14.040Z,55
2019-03-30T03:26:16.489Z,43
2019-03-30T03:31:18.986Z,43
2019-03-30T03:36:21.423Z,40
2019-03-30T03:41:23.862Z,37
2019-03-30T03:46:26.371Z,40
2019-03-30T03:51:29.079Z,37
2019-03-30T03:56:31.255Z,40
2019-03-30T04:01:33.717Z,36
2019-03-30T04:06:36.182Z,36
2019-03-30T04:11:38.621Z,33
2019-03-30T04:16:41.191Z,34
2019-03-30T04:21:44.866Z,42
2019-03-30T04:26:46.001Z,39
2019-03-30T04:31:48.481Z,40
2019-03-30T04:36:50.926Z,36
2019-03-30T04:41:53.382Z,37
2019-03-30T04:46:55.905Z,36
2019-03-30T04:51:58.807Z,41
2019-03-30T04:57:00.765Z,36
2019-03-30T05:02:03.213Z,32
2019-03-30T05:07:05.803Z,31
2019-03-30T05:12:08.134Z,42
2019-03-30T05:17:10.689Z,35
2019-03-30T05:22:16.409Z,37
2019-03-30T05:27:15.549Z,30
2019-03-30T05:32:17.974Z,32
2019-03-30T05:37:20.526Z,30
2019-03-30T05:42:22.867Z,26
2019-03-30T05:47:25.512Z,22
2019-03-30T05:52:28.088Z,20
2019-03-30T05:57:30.320Z,22
2019-03-30T06:02:32.737Z,23
2019-03-30T06:07:35.215Z,19
2019-03-30T06:12:37.655Z,19
2019-03-30T06:17:40.222Z,19
2019-03-30T06:22:42.865Z,21
2019-03-30T06:27:45.025Z,20
2019-03-30T06:32:47.503Z,18
2019-03-30T06:37:49.968Z,16
2019-03-30T06:42:52.444Z,11
2019-03-30T06:47:54.882Z,8
2019-03-30T06:53:02.363Z,7
2019-03-30T07:03:02.276Z,9
2019-03-30T07:08:04.719Z,9
2019-03-30T07:13:07.170Z,8
2019-03-30T07:18:09.711Z,7
2019-03-30T07:23:12.785Z,8
2019-03-30T07:28:14.537Z,9
2019-03-30T07:33:17.010Z,7
2019-03-30T07:38:19.460Z,8
2019-03-30T07:43:21.941Z,8
2019-03-30T07:48:24.476Z,8
2019-03-30T07:53:27.182Z,8
2019-03-30T07:58:29.289Z,8
2019-03-30T08:03:31.824Z,8
2019-03-30T08:08:34.207Z,9
2019-03-30T08:13:36.670Z,10
2019-03-30T08:18:39.166Z,9
2019-03-30T08:23:41.630Z,9
2019-03-30T08:28:44.084Z,9
2019-03-30T08:33:46.522Z,10
2019-03-30T08:38:49.002Z,10
2019-03-30T08:43:51.461Z,8
2019-03-30T08:48:53.994Z,10
2019-03-30T08:53:56.428Z,10
2019-03-30T08:58:58.856Z,9
2019-03-30T09:04:01.275Z,10
2019-03-30T09:09:03.759Z,9
2019-03-30T09:14:06.366Z,10
2019-03-30T09:19:08.742Z,9
2019-03-30T09:24:11.225Z,8
2019-03-30T09:29:13.970Z,9
2019-03-30T09:34:16.042Z,10
2019-03-30T09:39:18.526Z,9
2019-03-30T09:44:20.947Z,9
2019-03-30T09:49:23.600Z,8
2019-03-30T09:54:25.881Z,9
2019-03-30T09:59:28.397Z,9
2019-03-30T10:04:30.815Z,9
2019-03-30T10:09:33.246Z,8
2019-03-30T10:14:35.813Z,8
2019-03-30T10:19:38.293Z,9
2019-03-30T10:24:40.654Z,9
2019-03-30T10:29:43.436Z,8
2019-03-30T10:34:45.579Z,8
2019-03-30T10:39:48.035Z,9
2019-03-30T10:44:50.568Z,8
2019-03-30T10:54:55.440Z,7
2019-03-30T10:59:58.227Z,7
2019-03-30T11:05:00.458Z,8
2019-03-30T11:10:02.876Z,8
2019-03-30T11:15:05.321Z,8
2019-03-30T11:20:07.759Z,7
2019-03-30T11:25:10.345Z,7
2019-03-30T11:30:17.673Z,7
2019-03-30T11:35:15.120Z,7
2019-03-30T11:40:17.589Z,7
2019-03-30T11:45:20.133Z,7
2019-03-30T11:50:22.504Z,7
2019-03-30T11:55:25.067Z,7
2019-03-30T12:00:27.428Z,7
2019-03-30T12:05:29.890Z,6
2019-03-30T12:10:32.352Z,7
2019-03-30T12:15:34.801Z,7
2019-03-30T12:20:37.266Z,7
2019-03-30T12:25:39.845Z,7
2019-03-30T12:30:42.549Z,8
2019-03-30T12:35:44.692Z,8
2019-03-30T12:40:47.159Z,9
2019-03-30T12:45:49.575Z,9
2019-03-30T12:50:52.145Z,9
2019-03-30T12:55:54.585Z,9
2019-03-30T13:00:56.996Z,8
2019-03-30T13:05:59.504Z,9
2019-03-30T13:11:01.927Z,9
2019-03-30T13:16:04.358Z,9
2019-03-30T13:21:06.889Z,9
2019-03-30T13:26:09.359Z,7
2019-03-30T13:31:11.741Z,9
2019-03-30T13:36:14.228Z,9
2019-03-30T13:41:16.644Z,9
2019-03-30T13:46:19.131Z,7
2019-03-30T13:51:21.647Z,7
2019-03-30T13:56:24.193Z,9
2019-03-30T14:01:26.798Z,11
2019-03-30T14:06:28.933Z,9
2019-03-30T14:11:31.395Z,9
2019-03-30T14:16:33.876Z,8
2019-03-30T14:21:36.333Z,10
2019-03-30T14:26:39.061Z,9
2019-03-30T14:31:41.517Z,8
2019-03-30T14:36:44.184Z,7
2019-03-30T14:41:46.162Z,9
2019-03-30T14:46:48.754Z,8
2019-03-30T14:51:51.094Z,10
2019-03-30T14:56:53.627Z,10
2019-03-30T15:01:56.315Z,9
2019-03-30T15:06:58.799Z,10
2019-03-30T15:12:01.006Z,10
2019-03-30T15:17:03.454Z,10
2019-03-30T15:22:05.843Z,10
2019-03-30T15:27:08.373Z,11
2019-03-30T15:32:11.026Z,10
2019-03-30T15:37:13.192Z,10
2019-03-30T15:42:15.663Z,10
2019-03-30T15:47:18.150Z,10
2019-03-30T15:52:20.675Z,11
2019-03-30T15:57:25.318Z,11
2019-03-30T16:02:25.888Z,13
2019-03-30T16:07:27.943Z,12
2019-03-30T16:12:30.407Z,11
2019-03-30T16:17:32.863Z,14
2019-03-30T16:22:35.478Z,14
2019-03-30T16:27:39.301Z,10
2019-03-30T16:32:40.392Z,12
2019-03-30T16:37:42.747Z,11
2019-03-30T16:42:45.296Z,11
2019-03-30T16:47:47.696Z,25
2019-03-30T16:52:50.123Z,15
2019-03-30T16:57:52.622Z,12
2019-03-30T17:02:55.627Z,13
2019-03-30T17:07:57.581Z,13
2019-03-30T17:12:59.936Z,12
2019-03-30T17:18:02.438Z,16
2019-03-30T17:23:04.864Z,16
2019-03-30T17:28:07.378Z,14
2019-03-30T17:33:10.026Z,16
2019-03-30T17:38:12.189Z,15
2019-03-30T17:43:14.667Z,18
2019-03-30T17:48:17.105Z,17
2019-03-30T17:53:19.586Z,18
2019-03-30T17:58:22.118Z,41
2019-03-30T18:03:24.481Z,33
2019-03-30T18:08:26.958Z,39
2019-03-30T18:13:29.401Z,23
2019-03-30T18:23:34.309Z,79
2019-03-30T18:28:36.871Z,55
2019-03-30T18:33:39.249Z,44
2019-03-30T18:38:41.681Z,53
2019-03-30T18:43:44.143Z,55
2019-03-30T18:48:46.689Z,38
2019-03-30T18:53:49.091Z,39
2019-03-30T18:58:51.736Z,43
2019-03-30T19:03:54.337Z,42
2019-03-30T19:08:56.503Z,24
2019-03-30T19:13:58.884Z,25
2019-03-30T19:19:01.348Z,15
2019-03-30T19:24:03.851Z,17
2019-03-30T19:29:06.417Z,30
2019-03-30T19:34:09.039Z,28
2019-03-30T19:39:11.261Z,30
2019-03-30T19:44:13.629Z,25
2019-03-30T19:49:16.167Z,32
2019-03-30T19:54:18.548Z,25
2019-03-30T19:59:21.047Z,23
2019-03-30T20:04:23.809Z,25
2019-03-30T20:09:25.965Z,95
2019-03-30T20:14:28.385Z,26
2019-03-30T20:19:30.840Z,23
2019-03-30T20:24:33.322Z,24
2019-03-30T20:29:35.853Z,20
2019-03-30T20:34:38.575Z,21
2019-03-30T20:39:40.718Z,24
2019-03-30T20:44:43.171Z,37
2019-03-30T20:49:45.712Z,30
2019-03-30T20:54:48.059Z,26
2019-03-30T20:59:50.606Z,25
2019-03-30T21:04:53.406Z,24
2019-03-30T21:14:57.929Z,33
2019-03-30T21:20:00.427Z,76
2019-03-30T21:25:03.005Z,81
2019-03-30T21:30:05.412Z,52
2019-03-30T21:35:08.130Z,39
2019-03-30T21:40:10.222Z,44
2019-03-30T21:45:12.654Z,50
2019-03-30T21:50:15.128Z,53
2019-03-30T21:55:17.568Z,57
2019-03-30T22:00:20.121Z,48
2019-03-30T22:05:22.747Z,39
2019-03-30T22:10:24.974Z,35
2019-03-30T22:15:27.534Z,35
2019-03-30T22:20:29.851Z,38
2019-03-30T22:25:32.390Z,34
2019-03-30T22:30:34.841Z,39
2019-03-30T22:35:37.621Z,34
2019-03-30T22:40:41.522Z,32
2019-03-30T22:45:42.159Z,33
2019-03-30T22:50:44.595Z,28
2019-03-30T22:55:47.032Z,28
2019-03-30T23:00:49.614Z,31
2019-03-30T23:05:52.335Z,28
2019-03-30T23:10:54.481Z,27
2019-03-30T23:15:56.982Z,27
2019-03-30T23:20:59.431Z,33
2019-03-30T23:26:01.789Z,34
2019-03-30T23:31:04.367Z,33
2019-03-30T23:36:07.154Z,31
2019-03-30T23:41:09.230Z,25
2019-03-30T23:46:11.656Z,22
2019-03-30T23:51:14.102Z,27
2019-03-30T23:56:16.600Z,26
